الصفحة الرئيسية
METAR-TAF:

METAR-TAF

مطار :

سبزوار, إيران

دائرة عرض: 36-13N, خط طول: 057-40E, ارتفاع: 941 متر

مراقبة الطقس الحالي

تاريخ ووقت الإصدار 56 دقيقة قبل الساعة 14:00UTC
ريح 16 عقدة من الشمال
درجة الحرارة 31°درجة مئوية
الرطوبة 27%
ضغط 1013 hPa
الرؤية 10 كم أو أكثر
غيوم قليلة على ارتفاع 3000 قدم, مزنة ركامية.
غيوم متفرقة على ارتفاع 3500 قدم

METAR: OIMS 201400Z 36016KT 9999 FEW030CB SCT035 31/10 Q1013

زمن: 19:26 (14:56 UTC)


TAF: مفقودة

أرصاد الطقس والتوقعات من أكثر من 4000 مطار (تقارير الطقس للمطار METAR والتنبؤ بالطقس بالمطارTAF).

المحطات المتاحة هي النقط الصفراء والحمراء على الخريطة.

حرك المؤشر فوق النقطة لمعرفة اسم المحطة.

ثم انقر لمعرفة أرصاد وتوقعات الطقس.

لتغيير الخارطة: اضغط على الأزرار الخضراء مع رمز الصليب الأسود للتكبير. على الزر الأخضر مع شرطة للتصغير، أو على الأسهم الخضراء للخرائط المجاورة.


METAR-TAF: